Aérodrome :
LOGIN :

S'inscrire | Disclaimer

   EN    FR    IT 

 










Légende :    VFR   VFR Marginal   IFR   IFR Intensif   IFR Très Intensif
Visi : 
Plafond : 
>= 8 km
>= 3000ft
5 à 8 km
1000 à 3000 ft
1500m à 5 km
500 à 1000 ft
800 à 1500m
200 à 500 ft
< 800m
< 200 ft
Symboles :   Orages  Brouillard  Fortes neiges  Fortes précipitations  Vent > 20 kt
SIGMETs :   Divers  Orages  Givrage  Turbulence  Onde Orograph.  Cendres Volcan.






- Altitude de l'aérodrome : 238 ft
- Code IATA : FAB


EGLF - Farnborough

DERNIER METAR :
  • 232120Z AUTO 07003KT 7000 OVC009/// 12/11 Q1006

METARs EXPIRÉS :
  • 232050Z AUTO 08004KT 7000 OVC009/// 12/11 Q1006
  • 232020Z AUTO 07005KT 7000 OVC010/// 12/11 Q1006
  • 231950Z AUTO 06003KT 8000 OVC011/// 12/11 Q1007
  • 231920Z AUTO VRB03KT 9000 FEW013/// 12/10 Q1008
  • 231850Z AUTO 08004KT 060V120 9999 BKN011/// 12/10 Q1008

TAF TAF EGLF
Valide du 23 à 20h jusqu'au 23 à 23h UTC


232010Z 2320/2323 VRB03KT 9999 BKN010
TEMPO 2320/2323 7000 -RA BKN006
ATIS : +44 09063 800 400 (*282)



MET'MAP, la Météo Aéronautique d'un coup d'oeil ! - Copyright ORBIFLY Décembre 2007 - Disclaimer

ORBIFLY MET'MAP TEAM :

Programmation & Développement : Alexandra Zaïnal
Conception & Développement : Baudouin d'Aumeries
Co-Programmation & Développement : Marc-Olivier Méhu
Soutien technique & logistique : Manuel Goepfert

Contact : metmap@orbifly.com




SOURCES & CREDITS :

   NOAA